sensor_id;sensor_type;location;lat;lon;timestamp;P1;durP1;ratioP1;P2;durP2;ratioP2
49384;SDS011;36795;45.028;38.968;2023-03-29T00:01:54;20.62;;;6.70;;
49384;SDS011;36795;45.028;38.968;2023-03-29T00:04:40;22.48;;;6.60;;
49384;SDS011;36795;45.028;38.968;2023-03-29T00:07:28;20.25;;;6.28;;
49384;SDS011;36795;45.028;38.968;2023-03-29T00:10:17;22.67;;;6.97;;
49384;SDS011;36795;45.028;38.968;2023-03-29T00:13:03;22.75;;;7.53;;
49384;SDS011;36795;45.028;38.968;2023-03-29T00:15:49;24.87;;;8.18;;
49384;SDS011;36795;45.028;38.968;2023-03-29T00:18:35;20.90;;;6.95;;
49384;SDS011;36795;45.028;38.968;2023-03-29T00:21:22;22.20;;;6.97;;
49384;SDS011;36795;45.028;38.968;2023-03-29T00:24:08;22.02;;;7.60;;
49384;SDS011;36795;45.028;38.968;2023-03-29T00:26:54;23.02;;;7.85;;
49384;SDS011;36795;45.028;38.968;2023-03-29T00:29:41;22.35;;;7.10;;
49384;SDS011;36795;45.028;38.968;2023-03-29T00:32:27;23.33;;;7.55;;
49384;SDS011;36795;45.028;38.968;2023-03-29T00:35:13;22.92;;;6.25;;
49384;SDS011;36795;45.028;38.968;2023-03-29T00:38:00;22.85;;;6.75;;
49384;SDS011;36795;45.028;38.968;2023-03-29T00:40:46;22.27;;;7.32;;
49384;SDS011;36795;45.028;38.968;2023-03-29T00:43:52;23.00;;;7.03;;
49384;SDS011;36795;45.028;38.968;2023-03-29T00:46:39;21.40;;;7.80;;
49384;SDS011;36795;45.028;38.968;2023-03-29T00:49:25;22.90;;;7.75;;
49384;SDS011;36795;45.028;38.968;2023-03-29T00:52:12;24.23;;;7.25;;
49384;SDS011;36795;45.028;38.968;2023-03-29T00:55:02;24.60;;;7.35;;
49384;SDS011;36795;45.028;38.968;2023-03-29T00:57:48;24.25;;;6.93;;
49384;SDS011;36795;45.028;38.968;2023-03-29T01:00:37;25.40;;;7.57;;
49384;SDS011;36795;45.028;38.968;2023-03-29T01:03:26;24.08;;;6.47;;
49384;SDS011;36795;45.028;38.968;2023-03-29T01:06:15;23.05;;;6.53;;
49384;SDS011;36795;45.028;38.968;2023-03-29T01:09:04;21.85;;;6.22;;
49384;SDS011;36795;45.028;38.968;2023-03-29T01:11:53;22.70;;;6.35;;
49384;SDS011;36795;45.028;38.968;2023-03-29T01:14:48;23.73;;;5.82;;
49384;SDS011;36795;45.028;38.968;2023-03-29T01:17:38;19.42;;;5.30;;
49384;SDS011;36795;45.028;38.968;2023-03-29T01:20:50;23.30;;;5.50;;
49384;SDS011;36795;45.028;38.968;2023-03-29T01:29:47;16.60;;;4.10;;
49384;SDS011;36795;45.028;38.968;2023-03-29T01:32:37;17.70;;;4.07;;
49384;SDS011;36795;45.028;38.968;2023-03-29T01:35:33;15.85;;;4.30;;
49384;SDS011;36795;45.028;38.968;2023-03-29T01:38:29;19.92;;;3.95;;
49384;SDS011;36795;45.028;38.968;2023-03-29T01:41:18;22.10;;;4.45;;
49384;SDS011;36795;45.028;38.968;2023-03-29T01:44:05;18.75;;;4.37;;
49384;SDS011;36795;45.028;38.968;2023-03-29T01:46:54;16.20;;;3.90;;
49384;SDS011;36795;45.028;38.968;2023-03-29T01:49:47;17.20;;;4.22;;
49384;SDS011;36795;45.028;38.968;2023-03-29T01:52:44;22.48;;;4.65;;
49384;SDS011;36795;45.028;38.968;2023-03-29T01:55:34;22.98;;;5.55;;
49384;SDS011;36795;45.028;38.968;2023-03-29T01:58:23;21.12;;;4.28;;
49384;SDS011;36795;45.028;38.968;2023-03-29T02:01:12;24.77;;;5.03;;
49384;SDS011;36795;45.028;38.968;2023-03-29T02:04:02;25.35;;;4.65;;
49384;SDS011;36795;45.028;38.968;2023-03-29T02:06:50;17.55;;;3.83;;
49384;SDS011;36795;45.028;38.968;2023-03-29T02:09:38;19.30;;;3.70;;
49384;SDS011;36795;45.028;38.968;2023-03-29T02:12:27;17.62;;;3.10;;
49384;SDS011;36795;45.028;38.968;2023-03-29T02:15:14;16.87;;;3.05;;
49384;SDS011;36795;45.028;38.968;2023-03-29T02:18:02;17.27;;;3.12;;
49384;SDS011;36795;45.028;38.968;2023-03-29T02:20:50;20.02;;;3.03;;
49384;SDS011;36795;45.028;38.968;2023-03-29T02:23:39;13.90;;;2.87;;
49384;SDS011;36795;45.028;38.968;2023-03-29T02:26:25;18.25;;;3.53;;
49384;SDS011;36795;45.028;38.968;2023-03-29T02:29:12;15.40;;;2.92;;
49384;SDS011;36795;45.028;38.968;2023-03-29T02:32:04;20.65;;;3.70;;
49384;SDS011;36795;45.028;38.968;2023-03-29T02:34:57;22.10;;;4.18;;
49384;SDS011;36795;45.028;38.968;2023-03-29T02:37:45;21.83;;;3.30;;
49384;SDS011;36795;45.028;38.968;2023-03-29T02:40:33;18.25;;;3.50;;
49384;SDS011;36795;45.028;38.968;2023-03-29T02:43:22;17.45;;;3.50;;
49384;SDS011;36795;45.028;38.968;2023-03-29T02:46:09;18.17;;;3.33;;
49384;SDS011;36795;45.028;38.968;2023-03-29T02:48:55;15.18;;;3.33;;
49384;SDS011;36795;45.028;38.968;2023-03-29T02:51:42;16.83;;;3.15;;
49384;SDS011;36795;45.028;38.968;2023-03-29T02:54:29;18.40;;;3.83;;
49384;SDS011;36795;45.028;38.968;2023-03-29T02:57:17;17.37;;;3.92;;
49384;SDS011;36795;45.028;38.968;2023-03-29T03:00:05;19.15;;;3.12;;
49384;SDS011;36795;45.028;38.968;2023-03-29T03:02:54;15.48;;;3.30;;
49384;SDS011;36795;45.028;38.968;2023-03-29T03:05:40;18.73;;;3.37;;
49384;SDS011;36795;45.028;38.968;2023-03-29T03:08:28;15.18;;;3.17;;
49384;SDS011;36795;45.028;38.968;2023-03-29T03:11:16;19.20;;;3.70;;
49384;SDS011;36795;45.028;38.968;2023-03-29T03:14:04;19.50;;;3.53;;
49384;SDS011;36795;45.028;38.968;2023-03-29T03:16:51;17.10;;;2.72;;
49384;SDS011;36795;45.028;38.968;2023-03-29T03:19:39;13.57;;;2.80;;
49384;SDS011;36795;45.028;38.968;2023-03-29T03:22:28;16.98;;;2.70;;
49384;SDS011;36795;45.028;38.968;2023-03-29T03:25:17;13.20;;;2.83;;
49384;SDS011;36795;45.028;38.968;2023-03-29T03:28:04;18.02;;;3.30;;
49384;SDS011;36795;45.028;38.968;2023-03-29T03:30:52;18.10;;;3.67;;
49384;SDS011;36795;45.028;38.968;2023-03-29T03:33:42;19.08;;;2.80;;
49384;SDS011;36795;45.028;38.968;2023-03-29T03:36:32;14.48;;;3.50;;
49384;SDS011;36795;45.028;38.968;2023-03-29T03:39:18;15.90;;;3.15;;
49384;SDS011;36795;45.028;38.968;2023-03-29T03:42:04;18.62;;;3.20;;
49384;SDS011;36795;45.028;38.968;2023-03-29T03:44:52;16.95;;;3.00;;
49384;SDS011;36795;45.028;38.968;2023-03-29T03:47:39;22.05;;;3.37;;
49384;SDS011;36795;45.028;38.968;2023-03-29T03:50:29;17.40;;;3.58;;
49384;SDS011;36795;45.028;38.968;2023-03-29T03:53:15;16.70;;;3.80;;
49384;SDS011;36795;45.028;38.968;2023-03-29T03:56:06;15.68;;;3.08;;
49384;SDS011;36795;45.028;38.968;2023-03-29T03:58:57;14.48;;;3.55;;
49384;SDS011;36795;45.028;38.968;2023-03-29T04:01:42;18.00;;;2.92;;
49384;SDS011;36795;45.028;38.968;2023-03-29T04:04:30;18.20;;;2.87;;
49384;SDS011;36795;45.028;38.968;2023-03-29T04:07:16;16.52;;;3.28;;
49384;SDS011;36795;45.028;38.968;2023-03-29T04:10:03;24.83;;;3.55;;
49384;SDS011;36795;45.028;38.968;2023-03-29T04:12:50;15.98;;;3.20;;
49384;SDS011;36795;45.028;38.968;2023-03-29T04:15:38;18.02;;;3.17;;
49384;SDS011;36795;45.028;38.968;2023-03-29T04:18:25;15.98;;;3.53;;
49384;SDS011;36795;45.028;38.968;2023-03-29T04:21:12;17.00;;;3.25;;
49384;SDS011;36795;45.028;38.968;2023-03-29T04:23:58;18.52;;;3.65;;
49384;SDS011;36795;45.028;38.968;2023-03-29T04:26:45;17.77;;;3.20;;
49384;SDS011;36795;45.028;38.968;2023-03-29T04:29:32;19.33;;;3.55;;
49384;SDS011;36795;45.028;38.968;2023-03-29T04:32:20;23.52;;;6.25;;
49384;SDS011;36795;45.028;38.968;2023-03-29T04:35:07;18.15;;;3.60;;
49384;SDS011;36795;45.028;38.968;2023-03-29T04:37:54;21.75;;;4.30;;
49384;SDS011;36795;45.028;38.968;2023-03-29T04:40:41;17.87;;;3.95;;
49384;SDS011;36795;45.028;38.968;2023-03-29T04:43:28;14.98;;;3.60;;
49384;SDS011;36795;45.028;38.968;2023-03-29T04:46:16;17.05;;;3.65;;
49384;SDS011;36795;45.028;38.968;2023-03-29T04:49:04;16.52;;;3.70;;
49384;SDS011;36795;45.028;38.968;2023-03-29T04:51:51;15.43;;;3.67;;
49384;SDS011;36795;45.028;38.968;2023-03-29T04:54:40;17.55;;;3.97;;
49384;SDS011;36795;45.028;38.968;2023-03-29T04:57:28;16.08;;;4.22;;
49384;SDS011;36795;45.028;38.968;2023-03-29T05:00:16;16.83;;;4.53;;
49384;SDS011;36795;45.028;38.968;2023-03-29T05:03:05;14.23;;;3.47;;
49384;SDS011;36795;45.028;38.968;2023-03-29T05:05:52;17.73;;;4.20;;
49384;SDS011;36795;45.028;38.968;2023-03-29T05:08:39;13.07;;;3.40;;
49384;SDS011;36795;45.028;38.968;2023-03-29T05:11:26;15.32;;;3.67;;
49384;SDS011;36795;45.028;38.968;2023-03-29T05:14:13;13.52;;;3.30;;
49384;SDS011;36795;45.028;38.968;2023-03-29T05:17:00;13.38;;;3.72;;
49384;SDS011;36795;45.028;38.968;2023-03-29T05:19:50;20.67;;;4.20;;
49384;SDS011;36795;45.028;38.968;2023-03-29T05:22:37;17.67;;;3.62;;
49384;SDS011;36795;45.028;38.968;2023-03-29T05:25:24;12.60;;;3.20;;
49384;SDS011;36795;45.028;38.968;2023-03-29T05:28:11;15.68;;;4.68;;
49384;SDS011;36795;45.028;38.968;2023-03-29T05:31:00;17.05;;;4.97;;
49384;SDS011;36795;45.028;38.968;2023-03-29T05:33:49;18.58;;;4.20;;
49384;SDS011;36795;45.028;38.968;2023-03-29T05:36:35;20.35;;;5.80;;
49384;SDS011;36795;45.028;38.968;2023-03-29T05:39:23;16.25;;;4.95;;
49384;SDS011;36795;45.028;38.968;2023-03-29T05:42:10;18.60;;;4.97;;
49384;SDS011;36795;45.028;38.968;2023-03-29T05:44:59;17.73;;;4.93;;
49384;SDS011;36795;45.028;38.968;2023-03-29T05:47:46;21.75;;;6.00;;
49384;SDS011;36795;45.028;38.968;2023-03-29T05:50:33;20.35;;;5.22;;
49384;SDS011;36795;45.028;38.968;2023-03-29T05:53:21;20.98;;;5.50;;
49384;SDS011;36795;45.028;38.968;2023-03-29T05:56:08;22.42;;;5.75;;
49384;SDS011;36795;45.028;38.968;2023-03-29T05:58:55;19.83;;;5.18;;
49384;SDS011;36795;45.028;38.968;2023-03-29T06:01:42;13.80;;;3.95;;
49384;SDS011;36795;45.028;38.968;2023-03-29T06:04:31;19.08;;;4.68;;
49384;SDS011;36795;45.028;38.968;2023-03-29T06:07:18;23.10;;;9.93;;
49384;SDS011;36795;45.028;38.968;2023-03-29T06:10:06;19.08;;;5.80;;
49384;SDS011;36795;45.028;38.968;2023-03-29T06:12:53;15.43;;;4.30;;
49384;SDS011;36795;45.028;38.968;2023-03-29T06:15:40;17.67;;;4.85;;
49384;SDS011;36795;45.028;38.968;2023-03-29T06:18:26;19.67;;;5.45;;
49384;SDS011;36795;45.028;38.968;2023-03-29T06:21:13;19.48;;;5.45;;
49384;SDS011;36795;45.028;38.968;2023-03-29T06:23:59;19.20;;;5.28;;
49384;SDS011;36795;45.028;38.968;2023-03-29T06:26:46;18.10;;;5.10;;
49384;SDS011;36795;45.028;38.968;2023-03-29T06:29:32;18.23;;;5.18;;
49384;SDS011;36795;45.028;38.968;2023-03-29T06:32:19;15.93;;;5.55;;
49384;SDS011;36795;45.028;38.968;2023-03-29T06:35:06;21.02;;;5.95;;
49384;SDS011;36795;45.028;38.968;2023-03-29T06:37:53;19.48;;;5.43;;
49384;SDS011;36795;45.028;38.968;2023-03-29T06:40:45;18.23;;;5.07;;
49384;SDS011;36795;45.028;38.968;2023-03-29T06:43:32;16.95;;;4.90;;
49384;SDS011;36795;45.028;38.968;2023-03-29T06:46:22;17.20;;;4.53;;
49384;SDS011;36795;45.028;38.968;2023-03-29T06:49:10;14.43;;;4.40;;
49384;SDS011;36795;45.028;38.968;2023-03-29T06:51:59;15.98;;;4.47;;
49384;SDS011;36795;45.028;38.968;2023-03-29T06:54:46;17.12;;;4.50;;
49384;SDS011;36795;45.028;38.968;2023-03-29T06:57:32;16.02;;;4.93;;
49384;SDS011;36795;45.028;38.968;2023-03-29T07:00:20;17.23;;;5.22;;
49384;SDS011;36795;45.028;38.968;2023-03-29T07:03:15;15.32;;;4.65;;
49384;SDS011;36795;45.028;38.968;2023-03-29T07:06:07;13.32;;;3.87;;
49384;SDS011;36795;45.028;38.968;2023-03-29T07:08:54;19.35;;;5.28;;
49384;SDS011;36795;45.028;38.968;2023-03-29T07:11:45;13.95;;;4.37;;
49384;SDS011;36795;45.028;38.968;2023-03-29T07:14:34;14.57;;;3.67;;
49384;SDS011;36795;45.028;38.968;2023-03-29T07:17:21;15.00;;;4.15;;
49384;SDS011;36795;45.028;38.968;2023-03-29T07:20:07;14.57;;;3.83;;
49384;SDS011;36795;45.028;38.968;2023-03-29T07:22:58;13.93;;;3.80;;
49384;SDS011;36795;45.028;38.968;2023-03-29T07:25:45;13.88;;;4.03;;
49384;SDS011;36795;45.028;38.968;2023-03-29T07:28:35;15.00;;;4.05;;
49384;SDS011;36795;45.028;38.968;2023-03-29T07:31:21;12.82;;;3.95;;
49384;SDS011;36795;45.028;38.968;2023-03-29T07:34:08;13.80;;;3.90;;
49384;SDS011;36795;45.028;38.968;2023-03-29T07:36:55;15.00;;;3.95;;
49384;SDS011;36795;45.028;38.968;2023-03-29T07:39:42;15.93;;;4.30;;
49384;SDS011;36795;45.028;38.968;2023-03-29T07:42:33;12.00;;;3.70;;
49384;SDS011;36795;45.028;38.968;2023-03-29T07:45:22;11.10;;;3.20;;
49384;SDS011;36795;45.028;38.968;2023-03-29T07:48:11;10.23;;;3.17;;
49384;SDS011;36795;45.028;38.968;2023-03-29T07:51:02;21.05;;;7.15;;
49384;SDS011;36795;45.028;38.968;2023-03-29T07:53:48;15.98;;;4.18;;
49384;SDS011;36795;45.028;38.968;2023-03-29T07:56:35;11.75;;;3.62;;
49384;SDS011;36795;45.028;38.968;2023-03-29T07:59:22;14.02;;;3.80;;
49384;SDS011;36795;45.028;38.968;2023-03-29T08:02:09;13.43;;;3.78;;
49384;SDS011;36795;45.028;38.968;2023-03-29T08:04:57;9.77;;;3.03;;
49384;SDS011;36795;45.028;38.968;2023-03-29T08:07:46;8.25;;;2.95;;
49384;SDS011;36795;45.028;38.968;2023-03-29T08:10:35;19.20;;;6.97;;
49384;SDS011;36795;45.028;38.968;2023-03-29T08:13:22;31.05;;;17.67;;
49384;SDS011;36795;45.028;38.968;2023-03-29T08:16:40;11.98;;;3.67;;
49384;SDS011;36795;45.028;38.968;2023-03-29T08:19:29;12.80;;;4.50;;
49384;SDS011;36795;45.028;38.968;2023-03-29T08:22:17;16.80;;;5.00;;
49384;SDS011;36795;45.028;38.968;2023-03-29T08:25:06;13.88;;;3.92;;
49384;SDS011;36795;45.028;38.968;2023-03-29T08:27:54;13.27;;;3.87;;
49384;SDS011;36795;45.028;38.968;2023-03-29T08:30:42;8.60;;;3.20;;
49384;SDS011;36795;45.028;38.968;2023-03-29T08:33:29;9.15;;;2.65;;
49384;SDS011;36795;45.028;38.968;2023-03-29T08:36:15;7.18;;;2.62;;
49384;SDS011;36795;45.028;38.968;2023-03-29T08:39:02;4.22;;;2.00;;
49384;SDS011;36795;45.028;38.968;2023-03-29T08:41:59;6.95;;;2.53;;
49384;SDS011;36795;45.028;38.968;2023-03-29T08:50:50;6.10;;;2.05;;
49384;SDS011;36795;45.028;38.968;2023-03-29T08:53:42;10.05;;;2.10;;
49384;SDS011;36795;45.028;38.968;2023-03-29T08:56:31;7.28;;;2.62;;
49384;SDS011;36795;45.028;38.968;2023-03-29T08:59:21;10.50;;;3.20;;
49384;SDS011;36795;45.028;38.968;2023-03-29T09:02:16;8.75;;;2.67;;
49384;SDS011;36795;45.028;38.968;2023-03-29T09:05:46;6.53;;;2.50;;
49384;SDS011;36795;45.028;38.968;2023-03-29T09:08:14;9.65;;;2.65;;
49384;SDS011;36795;45.028;38.968;2023-03-29T09:11:05;16.00;;;4.60;;
49384;SDS011;36795;45.028;38.968;2023-03-29T09:17:17;8.70;;;2.90;;
49384;SDS011;36795;45.028;38.968;2023-03-29T09:20:21;10.13;;;3.22;;
49384;SDS011;36795;45.028;38.968;2023-03-29T09:26:33;8.90;;;3.00;;
49384;SDS011;36795;45.028;38.968;2023-03-29T09:29:24;9.98;;;3.00;;
49384;SDS011;36795;45.028;38.968;2023-03-29T09:32:20;19.80;;;5.37;;
49384;SDS011;36795;45.028;38.968;2023-03-29T09:35:20;12.35;;;3.15;;
49384;SDS011;36795;45.028;38.968;2023-03-29T09:38:08;8.43;;;2.50;;
49384;SDS011;36795;45.028;38.968;2023-03-29T09:44:28;12.60;;;3.40;;
49384;SDS011;36795;45.028;38.968;2023-03-29T09:47:27;9.85;;;2.87;;
49384;SDS011;36795;45.028;38.968;2023-03-29T09:50:17;10.57;;;2.70;;
49384;SDS011;36795;45.028;38.968;2023-03-29T09:53:04;11.93;;;2.70;;
49384;SDS011;36795;45.028;38.968;2023-03-29T09:55:51;6.35;;;1.98;;
49384;SDS011;36795;45.028;38.968;2023-03-29T09:58:39;16.08;;;3.45;;
49384;SDS011;36795;45.028;38.968;2023-03-29T10:01:33;8.68;;;2.10;;
49384;SDS011;36795;45.028;38.968;2023-03-29T10:04:22;7.72;;;2.40;;
49384;SDS011;36795;45.028;38.968;2023-03-29T10:07:15;8.95;;;2.60;;
49384;SDS011;36795;45.028;38.968;2023-03-29T10:10:08;8.32;;;2.45;;
49384;SDS011;36795;45.028;38.968;2023-03-29T10:13:03;7.50;;;2.33;;
49384;SDS011;36795;45.028;38.968;2023-03-29T10:15:57;6.12;;;2.35;;
49384;SDS011;36795;45.028;38.968;2023-03-29T10:18:45;9.65;;;2.03;;
49384;SDS011;36795;45.028;38.968;2023-03-29T10:21:34;7.68;;;2.60;;
49384;SDS011;36795;45.028;38.968;2023-03-29T10:24:22;11.35;;;3.05;;
49384;SDS011;36795;45.028;38.968;2023-03-29T10:27:11;7.25;;;2.50;;
49384;SDS011;36795;45.028;38.968;2023-03-29T10:29:57;26.98;;;13.90;;
49384;SDS011;36795;45.028;38.968;2023-03-29T10:32:44;7.90;;;2.40;;
49384;SDS011;36795;45.028;38.968;2023-03-29T10:35:36;7.35;;;2.42;;
49384;SDS011;36795;45.028;38.968;2023-03-29T10:38:26;5.68;;;1.90;;
49384;SDS011;36795;45.028;38.968;2023-03-29T10:41:12;5.80;;;2.00;;
49384;SDS011;36795;45.028;38.968;2023-03-29T10:44:01;10.23;;;2.50;;
49384;SDS011;36795;45.028;38.968;2023-03-29T10:46:47;8.18;;;2.70;;
49384;SDS011;36795;45.028;38.968;2023-03-29T10:49:42;5.75;;;2.00;;
49384;SDS011;36795;45.028;38.968;2023-03-29T10:52:28;7.25;;;2.45;;
49384;SDS011;36795;45.028;38.968;2023-03-29T10:55:16;5.45;;;1.90;;
49384;SDS011;36795;45.028;38.968;2023-03-29T11:00:54;11.88;;;2.70;;
49384;SDS011;36795;45.028;38.968;2023-03-29T11:03:50;15.57;;;3.55;;
49384;SDS011;36795;45.028;38.968;2023-03-29T11:06:43;34.40;;;18.10;;
49384;SDS011;36795;45.028;38.968;2023-03-29T11:12:30;9.43;;;1.98;;
49384;SDS011;36795;45.028;38.968;2023-03-29T11:18:39;3.78;;;1.55;;
49384;SDS011;36795;45.028;38.968;2023-03-29T11:21:36;8.55;;;1.90;;
49384;SDS011;36795;45.028;38.968;2023-03-29T11:24:34;8.10;;;2.25;;
49384;SDS011;36795;45.028;38.968;2023-03-29T11:30:44;7.53;;;2.22;;
49384;SDS011;36795;45.028;38.968;2023-03-29T11:36:41;4.32;;;1.83;;
49384;SDS011;36795;45.028;38.968;2023-03-29T11:42:27;6.37;;;2.58;;
49384;SDS011;36795;45.028;38.968;2023-03-29T11:45:19;4.97;;;1.87;;
49384;SDS011;36795;45.028;38.968;2023-03-29T11:48:14;5.82;;;1.87;;
49384;SDS011;36795;45.028;38.968;2023-03-29T11:51:04;16.83;;;3.08;;
49384;SDS011;36795;45.028;38.968;2023-03-29T11:56:47;8.68;;;2.15;;
49384;SDS011;36795;45.028;38.968;2023-03-29T11:59:36;10.70;;;2.60;;
49384;SDS011;36795;45.028;38.968;2023-03-29T12:02:27;8.13;;;2.20;;
49384;SDS011;36795;45.028;38.968;2023-03-29T12:05:26;9.05;;;2.37;;
49384;SDS011;36795;45.028;38.968;2023-03-29T12:08:20;8.77;;;2.33;;
49384;SDS011;36795;45.028;38.968;2023-03-29T12:13:58;7.57;;;2.10;;
49384;SDS011;36795;45.028;38.968;2023-03-29T12:16:50;7.80;;;2.40;;
49384;SDS011;36795;45.028;38.968;2023-03-29T12:19:45;13.27;;;3.40;;
49384;SDS011;36795;45.028;38.968;2023-03-29T12:22:35;6.30;;;2.03;;
49384;SDS011;36795;45.028;38.968;2023-03-29T12:25:30;6.12;;;2.30;;
49384;SDS011;36795;45.028;38.968;2023-03-29T12:28:31;13.20;;;3.75;;
49384;SDS011;36795;45.028;38.968;2023-03-29T12:40:04;5.87;;;1.98;;
49384;SDS011;36795;45.028;38.968;2023-03-29T12:42:59;8.02;;;2.10;;
49384;SDS011;36795;45.028;38.968;2023-03-29T12:45:47;3.53;;;1.67;;
49384;SDS011;36795;45.028;38.968;2023-03-29T12:48:37;4.72;;;1.50;;
49384;SDS011;36795;45.028;38.968;2023-03-29T12:51:27;6.00;;;2.10;;
49384;SDS011;36795;45.028;38.968;2023-03-29T12:54:15;5.78;;;1.95;;
49384;SDS011;36795;45.028;38.968;2023-03-29T13:00:17;7.28;;;2.10;;
49384;SDS011;36795;45.028;38.968;2023-03-29T13:03:17;6.85;;;2.45;;
49384;SDS011;36795;45.028;38.968;2023-03-29T13:06:05;11.60;;;2.78;;
49384;SDS011;36795;45.028;38.968;2023-03-29T13:12:02;11.88;;;3.30;;
49384;SDS011;36795;45.028;38.968;2023-03-29T13:14:50;6.60;;;2.25;;
49384;SDS011;36795;45.028;38.968;2023-03-29T13:17:41;6.55;;;2.22;;
49384;SDS011;36795;45.028;38.968;2023-03-29T13:20:37;5.65;;;2.15;;
49384;SDS011;36795;45.028;38.968;2023-03-29T13:23:46;9.52;;;2.78;;
49384;SDS011;36795;45.028;38.968;2023-03-29T13:26:42;7.75;;;1.95;;
49384;SDS011;36795;45.028;38.968;2023-03-29T13:38:22;6.22;;;2.35;;
49384;SDS011;36795;45.028;38.968;2023-03-29T13:44:27;9.88;;;2.08;;
49384;SDS011;36795;45.028;38.968;2023-03-29T13:47:26;4.45;;;1.90;;
49384;SDS011;36795;45.028;38.968;2023-03-29T13:50:18;22.23;;;10.93;;
49384;SDS011;36795;45.028;38.968;2023-03-29T13:53:06;7.72;;;2.22;;
49384;SDS011;36795;45.028;38.968;2023-03-29T13:55:56;9.15;;;2.95;;
49384;SDS011;36795;45.028;38.968;2023-03-29T13:58:43;11.93;;;2.80;;
49384;SDS011;36795;45.028;38.968;2023-03-29T14:04:34;9.45;;;2.58;;
49384;SDS011;36795;45.028;38.968;2023-03-29T14:07:22;10.05;;;2.58;;
49384;SDS011;36795;45.028;38.968;2023-03-29T14:10:12;13.32;;;2.60;;
49384;SDS011;36795;45.028;38.968;2023-03-29T14:12:59;12.80;;;3.10;;
49384;SDS011;36795;45.028;38.968;2023-03-29T14:15:49;14.93;;;3.70;;
49384;SDS011;36795;45.028;38.968;2023-03-29T14:18:39;11.48;;;3.40;;
49384;SDS011;36795;45.028;38.968;2023-03-29T14:21:26;14.32;;;3.58;;
49384;SDS011;36795;45.028;38.968;2023-03-29T14:24:15;8.20;;;2.70;;
49384;SDS011;36795;45.028;38.968;2023-03-29T14:27:03;9.85;;;3.10;;
49384;SDS011;36795;45.028;38.968;2023-03-29T14:29:50;10.18;;;3.10;;
49384;SDS011;36795;45.028;38.968;2023-03-29T14:32:37;9.18;;;3.03;;
49384;SDS011;36795;45.028;38.968;2023-03-29T14:35:27;12.65;;;3.50;;
49384;SDS011;36795;45.028;38.968;2023-03-29T14:38:16;11.07;;;3.20;;
49384;SDS011;36795;45.028;38.968;2023-03-29T14:41:02;12.45;;;3.45;;
49384;SDS011;36795;45.028;38.968;2023-03-29T14:43:49;10.77;;;3.37;;
49384;SDS011;36795;45.028;38.968;2023-03-29T14:46:35;15.45;;;4.15;;
49384;SDS011;36795;45.028;38.968;2023-03-29T14:49:23;18.65;;;6.43;;
49384;SDS011;36795;45.028;38.968;2023-03-29T14:52:10;17.42;;;5.78;;
49384;SDS011;36795;45.028;38.968;2023-03-29T14:54:58;13.23;;;4.50;;
49384;SDS011;36795;45.028;38.968;2023-03-29T14:57:45;14.38;;;4.47;;
49384;SDS011;36795;45.028;38.968;2023-03-29T15:00:37;15.85;;;4.32;;
49384;SDS011;36795;45.028;38.968;2023-03-29T15:03:25;16.12;;;4.28;;
49384;SDS011;36795;45.028;38.968;2023-03-29T15:06:13;13.55;;;4.07;;
49384;SDS011;36795;45.028;38.968;2023-03-29T15:08:59;13.35;;;3.45;;
49384;SDS011;36795;45.028;38.968;2023-03-29T15:11:49;15.40;;;4.90;;
49384;SDS011;36795;45.028;38.968;2023-03-29T15:14:36;12.95;;;4.00;;
49384;SDS011;36795;45.028;38.968;2023-03-29T15:17:33;13.48;;;3.83;;
49384;SDS011;36795;45.028;38.968;2023-03-29T15:23:32;12.48;;;4.22;;
49384;SDS011;36795;45.028;38.968;2023-03-29T15:31:55;9.75;;;3.75;;
49384;SDS011;36795;45.028;38.968;2023-03-29T15:34:43;12.20;;;3.90;;
49384;SDS011;36795;45.028;38.968;2023-03-29T15:37:29;12.63;;;3.80;;
49384;SDS011;36795;45.028;38.968;2023-03-29T15:40:16;11.95;;;3.58;;
49384;SDS011;36795;45.028;38.968;2023-03-29T15:43:03;12.70;;;3.28;;
49384;SDS011;36795;45.028;38.968;2023-03-29T15:45:50;9.25;;;2.95;;
49384;SDS011;36795;45.028;38.968;2023-03-29T15:48:36;10.27;;;2.97;;
49384;SDS011;36795;45.028;38.968;2023-03-29T15:51:23;10.88;;;3.17;;
49384;SDS011;36795;45.028;38.968;2023-03-29T15:54:09;11.18;;;3.60;;
49384;SDS011;36795;45.028;38.968;2023-03-29T15:56:58;15.48;;;3.87;;
49384;SDS011;36795;45.028;38.968;2023-03-29T15:59:45;13.98;;;3.67;;
49384;SDS011;36795;45.028;38.968;2023-03-29T16:02:32;6.30;;;2.50;;
49384;SDS011;36795;45.028;38.968;2023-03-29T16:05:19;10.07;;;3.05;;
49384;SDS011;36795;45.028;38.968;2023-03-29T16:08:05;7.70;;;2.72;;
49384;SDS011;36795;45.028;38.968;2023-03-29T16:10:51;6.00;;;2.50;;
49384;SDS011;36795;45.028;38.968;2023-03-29T16:13:37;7.15;;;2.53;;
49384;SDS011;36795;45.028;38.968;2023-03-29T16:16:25;8.82;;;2.60;;
49384;SDS011;36795;45.028;38.968;2023-03-29T16:19:13;9.07;;;3.20;;
49384;SDS011;36795;45.028;38.968;2023-03-29T16:22:00;9.48;;;2.80;;
49384;SDS011;36795;45.028;38.968;2023-03-29T16:28:06;12.88;;;3.37;;
49384;SDS011;36795;45.028;38.968;2023-03-29T16:30:53;9.40;;;3.08;;
49384;SDS011;36795;45.028;38.968;2023-03-29T16:33:41;9.88;;;2.87;;
49384;SDS011;36795;45.028;38.968;2023-03-29T16:36:27;10.95;;;3.20;;
49384;SDS011;36795;45.028;38.968;2023-03-29T16:39:24;8.45;;;2.70;;
49384;SDS011;36795;45.028;38.968;2023-03-29T16:42:14;10.68;;;2.90;;
49384;SDS011;36795;45.028;38.968;2023-03-29T16:45:01;11.38;;;3.42;;
49384;SDS011;36795;45.028;38.968;2023-03-29T16:47:48;15.75;;;3.87;;
49384;SDS011;36795;45.028;38.968;2023-03-29T16:50:35;12.63;;;3.78;;
49384;SDS011;36795;45.028;38.968;2023-03-29T16:53:21;18.77;;;4.78;;
49384;SDS011;36795;45.028;38.968;2023-03-29T16:56:08;12.75;;;3.50;;
49384;SDS011;36795;45.028;38.968;2023-03-29T16:58:54;13.90;;;4.07;;
49384;SDS011;36795;45.028;38.968;2023-03-29T17:01:40;16.62;;;4.62;;
49384;SDS011;36795;45.028;38.968;2023-03-29T17:04:26;14.93;;;4.45;;
49384;SDS011;36795;45.028;38.968;2023-03-29T17:07:13;17.23;;;4.78;;
49384;SDS011;36795;45.028;38.968;2023-03-29T17:09:59;17.05;;;5.28;;
49384;SDS011;36795;45.028;38.968;2023-03-29T17:12:48;16.08;;;5.28;;
49384;SDS011;36795;45.028;38.968;2023-03-29T17:15:34;17.33;;;5.60;;
49384;SDS011;36795;45.028;38.968;2023-03-29T17:18:22;18.80;;;6.50;;
49384;SDS011;36795;45.028;38.968;2023-03-29T17:21:08;18.45;;;6.78;;
49384;SDS011;36795;45.028;38.968;2023-03-29T17:23:55;20.20;;;6.78;;
49384;SDS011;36795;45.028;38.968;2023-03-29T17:26:41;21.98;;;7.43;;
49384;SDS011;36795;45.028;38.968;2023-03-29T17:29:28;21.27;;;7.57;;
49384;SDS011;36795;45.028;38.968;2023-03-29T17:32:14;21.98;;;7.90;;
49384;SDS011;36795;45.028;38.968;2023-03-29T17:35:01;23.40;;;8.40;;
49384;SDS011;36795;45.028;38.968;2023-03-29T17:37:47;23.55;;;9.20;;
49384;SDS011;36795;45.028;38.968;2023-03-29T17:40:34;24.85;;;9.50;;
49384;SDS011;36795;45.028;38.968;2023-03-29T17:43:20;22.95;;;9.48;;
49384;SDS011;36795;45.028;38.968;2023-03-29T17:46:07;23.95;;;9.90;;
49384;SDS011;36795;45.028;38.968;2023-03-29T17:48:53;22.50;;;8.75;;
49384;SDS011;36795;45.028;38.968;2023-03-29T17:51:40;24.42;;;9.85;;
49384;SDS011;36795;45.028;38.968;2023-03-29T17:54:26;24.45;;;10.48;;
49384;SDS011;36795;45.028;38.968;2023-03-29T17:57:13;25.60;;;9.90;;
49384;SDS011;36795;45.028;38.968;2023-03-29T17:59:59;23.48;;;9.63;;